createdAt,value
2023-04-28T00:00:11.801Z,12.04
2023-04-28T00:02:39.831Z,12.06
2023-04-28T00:05:07.966Z,12.10
2023-04-28T00:07:35.663Z,12.16
2023-04-28T00:10:03.358Z,12.18
2023-04-28T00:12:32.331Z,12.15
2023-04-28T00:14:59.851Z,12.11
2023-04-28T00:17:27.524Z,12.10
2023-04-28T00:19:55.091Z,12.08
2023-04-28T00:22:22.885Z,12.08
2023-04-28T00:24:50.436Z,12.11
2023-04-28T00:27:17.980Z,12.11
2023-04-28T00:29:47.162Z,12.06
2023-04-28T00:32:14.681Z,12.04
2023-04-28T00:34:42.318Z,12.01
2023-04-28T00:37:09.904Z,12.02
2023-04-28T00:39:37.391Z,12.04
2023-04-28T00:42:05.137Z,12.05
2023-04-28T00:44:32.625Z,12.07
2023-04-28T00:47:02.077Z,12.08
2023-04-28T00:49:29.685Z,12.08
2023-04-28T00:51:57.611Z,12.07
2023-04-28T00:54:25.945Z,12.07
2023-04-28T00:56:53.492Z,12.08
2023-04-28T01:01:48.959Z,12.09
2023-04-28T01:04:20.888Z,12.09
2023-04-28T01:06:50.126Z,12.11
2023-04-28T01:09:17.682Z,12.15
2023-04-28T01:11:45.310Z,12.18
2023-04-28T01:14:12.803Z,12.16
2023-04-28T01:16:41.501Z,12.14
2023-04-28T01:19:09.466Z,12.15
2023-04-28T01:21:38.268Z,12.13
2023-04-28T01:24:08.774Z,12.11
2023-04-28T01:26:36.365Z,12.07
2023-04-28T01:29:03.886Z,12.02
2023-04-28T01:31:31.844Z,12.00
2023-04-28T01:33:59.483Z,11.95
2023-04-28T01:36:27.360Z,11.92
2023-04-28T01:38:54.897Z,11.91
2023-04-28T01:41:23.732Z,11.93
2023-04-28T01:43:51.932Z,11.94
2023-04-28T01:46:19.499Z,11.97
2023-04-28T01:48:47.478Z,12.00
2023-04-28T01:51:14.963Z,12.04
2023-04-28T01:53:42.480Z,12.07
2023-04-28T01:56:10.045Z,12.09
2023-04-28T01:58:38.981Z,12.11
2023-04-28T02:01:06.772Z,12.13
2023-04-28T02:03:34.548Z,12.16
2023-04-28T02:06:02.457Z,12.15
2023-04-28T02:08:29.983Z,12.12
2023-04-28T02:10:57.946Z,12.10
2023-04-28T02:13:25.502Z,12.11
2023-04-28T02:15:54.499Z,12.13
2023-04-28T02:18:22.070Z,12.14
2023-04-28T02:20:49.661Z,12.16
2023-04-28T02:23:17.240Z,12.19
2023-04-28T02:25:44.835Z,12.20
2023-04-28T02:28:13.033Z,12.20
2023-04-28T02:30:40.879Z,12.22
2023-04-28T02:33:09.793Z,12.24
2023-04-28T02:35:37.523Z,12.26
2023-04-28T02:38:05.040Z,12.24
2023-04-28T02:40:32.648Z,12.15
2023-04-28T02:43:00.540Z,12.11
2023-04-28T02:45:28.142Z,12.07
2023-04-28T02:47:55.873Z,12.04
2023-04-28T02:50:24.843Z,12.00
2023-04-28T02:52:52.351Z,11.93
2023-04-28T02:55:24.135Z,11.83
2023-04-28T02:57:52.024Z,11.74
2023-04-28T03:00:20.124Z,11.69
2023-04-28T03:02:47.754Z,11.70
2023-04-28T03:05:15.755Z,11.71
2023-04-28T03:07:44.647Z,11.71
2023-04-28T03:10:12.390Z,11.71
2023-04-28T03:12:39.982Z,11.71
2023-04-28T03:15:08.941Z,11.73
2023-04-28T03:17:38.997Z,11.75
2023-04-28T03:20:07.699Z,11.77
2023-04-28T03:22:35.629Z,11.78
2023-04-28T03:25:05.390Z,11.76
2023-04-28T03:27:32.923Z,11.76
2023-04-28T03:30:00.708Z,11.78
2023-04-28T03:32:28.450Z,11.78
2023-04-28T03:34:56.122Z,11.75
2023-04-28T03:37:23.656Z,11.74
2023-04-28T03:39:51.217Z,11.70
2023-04-28T03:42:20.160Z,11.69
2023-04-28T03:44:47.785Z,11.66
2023-04-28T03:47:15.536Z,11.63
2023-04-28T03:49:43.018Z,11.63
2023-04-28T03:52:10.545Z,11.59
2023-04-28T03:54:38.077Z,11.58
2023-04-28T03:57:05.644Z,11.61
2023-04-28T03:59:34.593Z,11.61
2023-04-28T04:02:02.104Z,11.61
2023-04-28T04:04:29.782Z,11.60
2023-04-28T04:06:57.654Z,11.58
2023-04-28T04:09:25.313Z,11.53
2023-04-28T04:11:52.931Z,11.49
2023-04-28T04:14:20.657Z,11.45
2023-04-28T04:16:49.574Z,11.46
2023-04-28T04:19:17.102Z,11.48
2023-04-28T04:21:44.672Z,11.51
2023-04-28T04:24:12.233Z,11.58
2023-04-28T04:26:39.838Z,11.64
2023-04-28T04:29:07.447Z,11.68
2023-04-28T04:31:35.111Z,11.73
2023-04-28T04:34:04.042Z,11.74
2023-04-28T04:36:32.846Z,11.73
2023-04-28T04:39:00.524Z,11.67
2023-04-28T04:41:28.272Z,11.63
2023-04-28T04:46:59.742Z,11.52
2023-04-28T04:50:12.538Z,11.52
2023-04-28T05:21:46.926Z,11.13
2023-04-28T05:27:59.473Z,11.26
2023-04-28T05:31:06.869Z,11.26
2023-04-28T05:34:01.562Z,11.32
2023-04-28T05:36:29.325Z,11.34
2023-04-28T05:38:56.998Z,11.34
2023-04-28T05:41:32.071Z,11.32
2023-04-28T05:44:01.568Z,11.30
2023-04-28T05:46:31.045Z,11.32
2023-04-28T05:48:59.852Z,11.31
2023-04-28T05:51:28.229Z,11.32
2023-04-28T05:53:56.205Z,11.30
2023-04-28T05:56:23.870Z,11.30
2023-04-28T05:58:52.133Z,11.24
2023-04-28T06:01:27.410Z,11.12
2023-04-28T06:04:27.528Z,11.01
2023-04-28T06:10:07.998Z,10.93
2023-04-28T06:12:55.722Z,10.91
2023-04-28T06:15:26.108Z,10.90
2023-04-28T06:17:56.086Z,10.89
2023-04-28T06:20:24.282Z,10.89
2023-04-28T06:22:52.270Z,10.89
2023-04-28T06:25:20.083Z,10.87
2023-04-28T06:27:48.190Z,10.85
2023-04-28T06:30:20.906Z,10.81
2023-04-28T06:32:49.528Z,10.77
2023-04-28T06:35:18.924Z,10.72
2023-04-28T06:37:59.258Z,10.68
2023-04-28T06:40:27.374Z,10.63
2023-04-28T06:42:55.009Z,10.62
2023-04-28T06:45:22.770Z,10.60
2023-04-28T06:47:51.181Z,10.62
2023-04-28T06:50:20.276Z,10.64
2023-04-28T07:06:50.113Z,10.59
2023-04-28T07:12:02.144Z,10.60
2023-04-28T07:14:29.666Z,10.61
2023-04-28T07:16:57.256Z,10.65
2023-04-28T07:49:16.467Z,11.10
2023-04-28T07:54:58.085Z,11.17
2023-04-28T07:57:27.051Z,11.19
2023-04-28T07:59:55.230Z,11.24
2023-04-28T08:02:24.916Z,11.30
2023-04-28T08:04:54.808Z,11.38
2023-04-28T08:07:22.979Z,11.48
2023-04-28T08:09:52.628Z,11.56
2023-04-28T08:12:21.989Z,11.60
2023-04-28T08:14:49.583Z,11.64
2023-04-28T08:17:21.018Z,11.67
2023-04-28T08:19:48.843Z,11.73
2023-04-28T08:22:17.912Z,11.78
2023-04-28T08:24:46.391Z,11.78
2023-04-28T08:30:25.838Z,11.82
2023-04-28T08:45:14.678Z,12.04
2023-04-28T08:47:50.005Z,12.04
2023-04-28T08:50:23.041Z,12.08
2023-04-28T08:52:58.385Z,12.07
2023-04-28T08:55:33.874Z,12.05
2023-04-28T08:58:04.899Z,12.06
2023-04-28T09:00:33.145Z,12.09
2023-04-28T09:03:01.135Z,12.11
2023-04-28T09:05:28.928Z,12.19
2023-04-28T09:07:56.972Z,12.24
2023-04-28T09:10:25.779Z,12.30
2023-04-28T09:12:55.208Z,12.36
2023-04-28T09:15:55.888Z,12.41
2023-04-28T09:18:26.519Z,12.43
2023-04-28T09:21:46.478Z,12.44
2023-04-28T09:24:29.837Z,12.50
2023-04-28T09:26:57.945Z,12.56
2023-04-28T09:29:25.617Z,12.61
2023-04-28T09:31:54.807Z,12.68
2023-04-28T09:34:22.693Z,12.78
2023-04-28T09:36:50.737Z,12.92
2023-04-28T09:39:29.713Z,13.04
2023-04-28T09:41:57.372Z,13.10
2023-04-28T09:44:24.993Z,13.13
2023-04-28T09:46:53.825Z,13.13
2023-04-28T09:49:21.733Z,13.12
2023-04-28T09:51:50.266Z,13.14
2023-04-28T09:54:18.493Z,13.16
2023-04-28T09:56:48.617Z,13.24
2023-04-28T09:59:16.415Z,13.28
2023-04-28T10:01:45.213Z,13.30
2023-04-28T10:04:14.808Z,13.33
2023-04-28T10:06:43.728Z,13.37
2023-04-28T10:09:12.441Z,13.43
2023-04-28T10:11:40.623Z,13.51
2023-04-28T10:14:08.223Z,13.59
2023-04-28T10:16:35.862Z,13.72
2023-04-28T10:19:04.745Z,13.84
2023-04-28T10:21:41.979Z,13.94
2023-04-28T10:24:11.727Z,14.00
2023-04-28T10:27:04.105Z,14.07
2023-04-28T10:29:33.321Z,14.15
2023-04-28T10:32:21.323Z,14.19
2023-04-28T10:34:49.226Z,14.24
2023-04-28T10:37:19.235Z,14.30
2023-04-28T10:40:24.979Z,14.35
2023-04-28T10:42:53.590Z,14.38
2023-04-28T10:45:56.677Z,14.39
2023-04-28T10:48:45.097Z,14.37
2023-04-28T10:51:24.417Z,14.39
2023-04-28T10:54:21.762Z,14.41
2023-04-28T10:57:21.233Z,14.43
2023-04-28T10:59:50.312Z,14.44
2023-04-28T11:02:39.013Z,14.43
2023-04-28T11:05:13.379Z,14.47
2023-04-28T11:07:41.071Z,14.52
2023-04-28T11:10:10.149Z,14.55
2023-04-28T11:12:37.660Z,14.61
2023-04-28T11:15:13.749Z,14.66
2023-04-28T11:17:42.882Z,14.70
2023-04-28T11:20:13.816Z,14.72
2023-04-28T11:22:41.982Z,14.74
2023-04-28T11:25:10.985Z,14.76
2023-04-28T11:27:38.468Z,14.77
2023-04-28T11:30:22.178Z,14.77
2023-04-28T11:32:51.225Z,14.76
2023-04-28T11:35:18.774Z,14.76
2023-04-28T11:37:46.581Z,14.75
2023-04-28T11:40:17.296Z,14.76
2023-04-28T11:42:49.044Z,14.75
2023-04-28T11:45:16.686Z,14.77
2023-04-28T11:47:44.299Z,14.80
2023-04-28T11:50:12.894Z,14.82
2023-04-28T11:52:50.847Z,14.81
2023-04-28T11:55:21.435Z,14.82
2023-04-28T11:57:48.900Z,14.86
2023-04-28T12:00:21.768Z,14.88
2023-04-28T12:02:49.509Z,14.88
2023-04-28T12:05:17.579Z,14.90
2023-04-28T12:07:46.522Z,14.92
2023-04-28T12:10:16.658Z,14.94
2023-04-28T12:12:51.944Z,14.97
2023-04-28T12:15:21.641Z,14.99
2023-04-28T12:17:50.751Z,15.03
2023-04-28T12:20:37.169Z,15.13
2023-04-28T12:23:05.372Z,15.24
2023-04-28T12:25:34.002Z,15.32
2023-04-28T12:28:04.527Z,15.41
2023-04-28T12:30:33.964Z,15.51
2023-04-28T12:33:01.938Z,15.58
2023-04-28T12:35:30.497Z,15.64
2023-04-28T12:37:58.981Z,15.70
2023-04-28T12:40:27.050Z,15.76
2023-04-28T12:42:54.767Z,15.82
2023-04-28T12:45:23.690Z,15.85
2023-04-28T12:47:51.418Z,15.85
2023-04-28T12:50:19.183Z,15.82
2023-04-28T12:52:46.728Z,15.78
2023-04-28T12:55:14.301Z,15.71
2023-04-28T12:57:41.947Z,15.65
2023-04-28T13:00:10.435Z,15.61
2023-04-28T13:02:40.070Z,15.55
2023-04-28T13:05:09.244Z,15.50
2023-04-28T13:07:36.891Z,15.47
2023-04-28T13:10:04.569Z,15.44
2023-04-28T13:12:33.438Z,15.44
2023-04-28T13:15:02.486Z,15.43
2023-04-28T13:17:30.082Z,15.43
2023-04-28T16:01:15.215Z,15.06
2023-04-28T16:03:44.194Z,15.03
2023-04-28T16:06:13.317Z,14.99
2023-04-28T16:08:40.910Z,14.97
2023-04-28T16:11:17.467Z,14.97
2023-04-28T16:13:45.405Z,14.97
2023-04-28T16:16:14.331Z,14.94
2023-04-28T16:18:41.868Z,14.96
2023-04-28T16:21:09.388Z,14.95
2023-04-28T16:23:37.768Z,14.94
2023-04-28T16:26:05.656Z,14.93
2023-04-28T16:28:33.578Z,14.92
2023-04-28T16:31:01.151Z,14.92
2023-04-28T16:33:30.024Z,14.91
2023-04-28T16:35:59.411Z,14.90
2023-04-28T16:38:27.026Z,14.89
2023-04-28T16:40:54.570Z,14.88
2023-04-28T16:43:22.386Z,14.83
2023-04-28T16:45:50.046Z,14.82
2023-04-28T16:48:20.057Z,14.83
2023-04-28T16:50:48.931Z,14.83
2023-04-28T16:53:16.535Z,14.83
2023-04-28T16:55:44.014Z,14.83
2023-04-28T16:58:11.499Z,14.81
2023-04-28T17:00:39.067Z,14.80
2023-04-28T17:03:06.912Z,14.78
2023-04-28T17:05:35.105Z,14.76
2023-04-28T17:08:04.036Z,14.74
2023-04-28T17:10:32.319Z,14.75
2023-04-28T17:12:59.863Z,14.76
2023-04-28T17:15:27.628Z,14.74
2023-04-28T17:17:55.828Z,14.70
2023-04-28T17:20:24.052Z,14.68
2023-04-28T17:22:53.106Z,14.66
2023-04-28T17:25:24.112Z,14.61
2023-04-28T17:27:51.666Z,14.52
2023-04-28T17:30:19.208Z,14.35
2023-04-28T17:32:46.946Z,14.18
2023-04-28T17:35:14.497Z,14.08
2023-04-28T17:37:42.088Z,13.98
2023-04-28T17:40:11.156Z,13.93
2023-04-28T17:42:40.068Z,13.92
2023-04-28T17:45:08.859Z,13.89
2023-04-28T17:47:37.024Z,13.87
2023-04-28T17:50:06.532Z,13.86
2023-04-28T17:52:34.149Z,13.80
2023-04-28T17:55:01.686Z,13.77
2023-04-28T17:57:29.169Z,13.69
2023-04-28T17:59:58.076Z,13.63
2023-04-28T18:02:25.738Z,13.56
2023-04-28T18:04:53.673Z,13.55
2023-04-28T18:07:21.373Z,13.54
2023-04-28T18:09:48.897Z,13.50
2023-04-28T18:12:17.125Z,13.45
2023-04-28T18:14:45.378Z,13.40
2023-04-28T18:17:14.228Z,13.35
2023-04-28T18:19:42.076Z,13.32
2023-04-28T18:22:09.979Z,13.29
2023-04-28T18:24:37.930Z,13.23
2023-04-28T18:27:05.459Z,13.17
2023-04-28T18:29:32.978Z,13.16
2023-04-28T18:32:00.975Z,13.15
2023-04-28T18:34:29.942Z,13.12
2023-04-28T18:36:57.481Z,13.09
2023-04-28T18:39:25.317Z,13.07
2023-04-28T18:41:53.114Z,13.07
2023-04-28T18:44:20.610Z,13.05
2023-04-28T18:46:48.389Z,12.97
2023-04-28T18:49:15.928Z,12.90
2023-04-28T18:51:44.820Z,12.87
2023-04-28T18:54:15.781Z,12.85
2023-04-28T18:56:44.314Z,12.88
2023-04-28T18:59:12.188Z,12.91
2023-04-28T19:01:39.825Z,12.89
2023-04-28T19:04:07.552Z,12.87
2023-04-28T19:06:36.179Z,12.84
2023-04-28T19:09:05.103Z,12.80
2023-04-28T19:11:32.665Z,12.77
2023-04-28T19:14:00.189Z,12.74
2023-04-28T19:16:27.881Z,12.71
2023-04-28T19:18:55.821Z,12.65
2023-04-28T19:21:23.395Z,12.57
2023-04-28T19:23:50.891Z,12.54
2023-04-28T19:26:19.798Z,12.54
2023-04-28T19:28:47.431Z,12.52
2023-04-28T19:31:15.043Z,12.50
2023-04-28T19:33:42.620Z,12.46
2023-04-28T19:36:10.689Z,12.41
2023-04-28T19:38:40.141Z,12.40
2023-04-28T19:41:07.743Z,12.38
2023-04-28T19:43:36.729Z,12.36
2023-04-28T19:46:04.278Z,12.35
2023-04-28T19:48:31.835Z,12.32
2023-04-28T19:50:59.395Z,12.29
2023-04-28T19:53:27.185Z,12.25
2023-04-28T19:55:54.680Z,12.23
2023-04-28T19:58:22.939Z,12.20
2023-04-28T20:00:53.577Z,12.24
2023-04-28T20:03:21.271Z,12.26
2023-04-28T20:05:49.182Z,12.28
2023-04-28T20:08:19.405Z,12.29
2023-04-28T20:10:47.775Z,12.32
2023-04-28T20:13:16.258Z,12.31
2023-04-28T20:15:43.974Z,12.31
2023-04-28T20:18:12.883Z,12.32
2023-04-28T20:20:40.391Z,12.32
2023-04-28T20:23:07.938Z,12.32
2023-04-28T20:25:36.931Z,12.30
2023-04-28T20:28:04.804Z,12.30
2023-04-28T20:30:32.564Z,12.29
2023-04-28T20:33:00.153Z,12.33
2023-04-28T20:35:29.157Z,12.36
2023-04-28T20:37:56.752Z,12.38
2023-04-28T20:40:24.235Z,12.40
2023-04-28T20:42:51.713Z,12.43
2023-04-28T20:45:19.552Z,12.46
2023-04-28T20:47:47.136Z,12.50
2023-04-28T20:50:15.573Z,12.56
2023-04-28T20:52:45.692Z,12.61
2023-04-28T20:55:13.337Z,12.65
2023-04-28T20:57:40.860Z,12.68
2023-04-28T21:00:10.549Z,12.70
2023-04-28T21:02:38.247Z,12.71
2023-04-28T21:05:06.440Z,12.75
2023-04-28T21:07:34.038Z,12.78
2023-04-28T21:10:02.885Z,12.82
2023-04-28T21:12:30.383Z,12.82
2023-04-28T21:14:59.417Z,12.83
2023-04-28T21:17:27.162Z,12.81
2023-04-28T21:19:55.186Z,12.81
2023-04-28T21:22:22.743Z,12.80
2023-04-28T21:24:50.210Z,12.80
2023-04-28T21:27:19.190Z,12.81
2023-04-28T21:29:46.918Z,12.81
2023-04-28T21:32:14.780Z,12.82
2023-04-28T21:34:42.623Z,12.81
2023-04-28T21:37:10.119Z,12.81
2023-04-28T21:39:37.694Z,12.83
2023-04-28T21:42:08.024Z,12.82
2023-04-28T21:44:37.490Z,12.82
2023-04-28T21:47:06.632Z,12.83
2023-04-28T21:49:34.178Z,12.76
2023-04-28T21:52:01.858Z,12.72
2023-04-28T21:54:29.449Z,12.73
2023-04-28T21:56:56.955Z,12.72
2023-04-28T21:59:25.248Z,12.72
2023-04-28T22:01:54.490Z,12.73
2023-04-28T22:04:23.201Z,12.75
2023-04-28T22:06:51.084Z,12.80
2023-04-28T22:09:18.594Z,12.82
2023-04-28T22:11:46.160Z,12.87
2023-04-28T22:14:30.469Z,12.92
2023-04-28T22:17:06.769Z,12.97
2023-04-28T22:19:34.572Z,13.02
2023-04-28T22:22:02.379Z,13.06
2023-04-28T22:24:30.106Z,13.09
2023-04-28T22:26:58.310Z,13.12
2023-04-28T22:29:26.745Z,13.14
2023-04-28T22:31:54.690Z,13.15
2023-04-28T22:34:24.213Z,13.16
2023-04-28T22:36:52.912Z,13.23
2023-04-28T22:39:20.804Z,13.26
2023-04-28T22:41:49.081Z,13.30
2023-04-28T22:44:17.176Z,13.34
2023-04-28T22:46:45.220Z,13.35
2023-04-28T22:49:13.234Z,13.38
2023-04-28T22:51:42.509Z,13.41
2023-04-28T22:54:11.111Z,13.42
2023-04-28T22:56:38.991Z,13.45
2023-04-28T22:59:06.833Z,13.44
2023-04-28T23:01:34.789Z,13.43
2023-04-28T23:04:02.886Z,13.44
2023-04-28T23:06:32.122Z,13.44
2023-04-28T23:09:03.510Z,13.44
2023-04-28T23:11:31.318Z,13.43
2023-04-28T23:13:59.264Z,13.42
2023-04-28T23:16:27.140Z,13.41
2023-04-28T23:18:55.026Z,13.38
2023-04-28T23:21:22.800Z,13.37
2023-04-28T23:23:50.844Z,13.37
2023-04-28T23:26:20.153Z,13.36
2023-04-28T23:28:48.210Z,13.35
2023-04-28T23:31:16.334Z,13.35
2023-04-28T23:33:44.124Z,13.33
2023-04-28T23:36:12.711Z,13.29
2023-04-28T23:38:40.599Z,13.28
2023-04-28T23:41:09.193Z,13.26
2023-04-28T23:43:38.585Z,13.27
2023-04-28T23:46:06.890Z,13.26
2023-04-28T23:48:34.849Z,13.28
2023-04-28T23:51:02.835Z,13.29
2023-04-28T23:53:30.789Z,13.30
2023-04-28T23:55:58.677Z,13.30
2023-04-28T23:58:26.629Z,13.32
